createdAt,value
2022-07-28T00:02:44.811Z,1.30
2022-07-28T00:07:50.412Z,1.90
2022-07-28T00:12:55.992Z,1.90
2022-07-28T00:18:02.040Z,1.37
2022-07-28T00:23:07.594Z,1.17
2022-07-28T00:28:13.117Z,1.23
2022-07-28T00:33:18.781Z,1.30
2022-07-28T00:38:24.201Z,1.30
2022-07-28T00:43:29.753Z,1.60
2022-07-28T00:48:36.991Z,1.00
2022-07-28T00:53:42.622Z,1.30
2022-07-28T00:58:48.778Z,1.20
2022-07-28T01:04:00.305Z,1.33
2022-07-28T01:09:31.268Z,1.30
2022-07-28T01:14:45.945Z,1.43
2022-07-28T01:20:11.168Z,1.30
2022-07-28T01:25:48.457Z,0.90
2022-07-28T01:30:55.907Z,1.20
2022-07-28T01:36:13.427Z,1.10
2022-07-28T01:41:24.613Z,1.10
2022-07-28T01:46:32.004Z,1.20
2022-07-28T01:51:39.322Z,1.30
2022-07-28T01:56:46.995Z,1.37
2022-07-28T02:01:54.097Z,1.20
2022-07-28T02:07:01.581Z,1.27
2022-07-28T02:12:08.695Z,0.90
2022-07-28T02:17:17.713Z,1.23
2022-07-28T02:22:23.802Z,1.20
2022-07-28T02:27:41.229Z,1.60
2022-07-28T02:32:52.734Z,1.33
2022-07-28T02:38:08.647Z,1.30
2022-07-28T02:43:17.952Z,1.30
2022-07-28T02:48:26.530Z,1.17
2022-07-28T02:53:34.457Z,1.43
2022-07-28T02:58:40.936Z,1.27
2022-07-28T03:03:49.246Z,1.33
2022-07-28T03:08:56.203Z,2.37
2022-07-28T03:14:01.842Z,1.10
2022-07-28T03:19:08.254Z,1.10
2022-07-28T03:24:14.865Z,1.23
2022-07-28T03:29:21.721Z,1.43
2022-07-28T03:34:28.459Z,1.40
2022-07-28T03:39:36.923Z,1.40
2022-07-28T03:44:43.341Z,1.57
2022-07-28T03:49:49.251Z,1.30
2022-07-28T03:54:54.841Z,1.37
2022-07-28T04:00:06.107Z,1.30
2022-07-28T04:05:15.296Z,1.60
2022-07-28T04:10:20.753Z,1.40
2022-07-28T04:15:28.487Z,1.50
2022-07-28T04:20:34.457Z,1.40
2022-07-28T04:25:40.197Z,1.27
2022-07-28T04:30:46.265Z,1.30
2022-07-28T04:35:53.448Z,1.30
2022-07-28T04:40:59.059Z,1.10
2022-07-28T04:46:04.701Z,1.43
2022-07-28T04:51:10.913Z,1.47
2022-07-28T04:56:16.472Z,1.57
2022-07-28T05:01:22.112Z,1.20
2022-07-28T05:06:27.910Z,1.20
2022-07-28T05:11:33.371Z,1.40
2022-07-28T05:16:38.882Z,1.33
2022-07-28T05:21:44.495Z,1.53
2022-07-28T05:26:50.064Z,1.40
2022-07-28T05:31:55.707Z,1.50
2022-07-28T05:37:05.511Z,1.50
2022-07-28T05:42:11.065Z,1.30
2022-07-28T05:47:16.518Z,1.47
2022-07-28T05:52:21.982Z,1.40
2022-07-28T05:57:27.667Z,1.57
2022-07-28T06:02:33.256Z,1.17
2022-07-28T06:07:43.375Z,1.70
2022-07-28T06:12:48.346Z,1.50
2022-07-28T06:17:55.953Z,1.57
2022-07-28T06:23:01.718Z,1.37
2022-07-28T06:28:07.380Z,1.70
2022-07-28T06:33:17.123Z,1.50
2022-07-28T06:38:21.935Z,1.20
2022-07-28T06:43:27.593Z,1.17
2022-07-28T06:48:33.244Z,1.30
2022-07-28T06:53:38.904Z,1.27
2022-07-28T06:58:47.167Z,1.40
2022-07-28T07:03:52.078Z,1.60
2022-07-28T07:08:57.735Z,1.20
2022-07-28T07:14:03.350Z,1.50
2022-07-28T07:19:13.942Z,1.20
2022-07-28T07:24:16.624Z,1.63
2022-07-28T07:29:23.175Z,1.60
2022-07-28T07:34:28.634Z,1.63
2022-07-28T07:39:34.398Z,1.23
2022-07-28T07:44:40.066Z,1.20
2022-07-28T07:49:46.754Z,1.40
2022-07-28T07:54:52.426Z,1.43
2022-07-28T07:59:58.115Z,1.60
2022-07-28T08:05:03.741Z,1.20
2022-07-28T08:10:10.933Z,1.30
2022-07-28T08:15:16.535Z,1.40
2022-07-28T08:20:22.155Z,1.10
2022-07-28T08:25:27.765Z,1.53
2022-07-28T08:30:33.628Z,1.30
2022-07-28T08:35:40.026Z,1.23
2022-07-28T08:40:48.658Z,1.20
2022-07-28T08:45:58.463Z,1.97
2022-07-28T08:51:05.869Z,1.20
2022-07-28T08:56:16.382Z,1.57
2022-07-28T09:01:23.731Z,1.53
2022-07-28T09:06:30.006Z,1.10
2022-07-28T09:11:35.449Z,1.37
2022-07-28T09:16:41.329Z,1.13
2022-07-28T09:21:47.014Z,1.47
2022-07-28T09:27:03.627Z,1.43
2022-07-28T09:32:10.206Z,1.20
2022-07-28T09:37:27.990Z,1.50
2022-07-28T09:42:37.001Z,1.43
2022-07-28T09:47:42.738Z,1.57
2022-07-28T09:52:48.636Z,1.23
2022-07-28T09:57:56.058Z,1.10
2022-07-28T10:03:01.692Z,1.53
2022-07-28T10:08:07.594Z,1.00
2022-07-28T10:13:13.104Z,1.20
2022-07-28T10:18:18.727Z,1.00
2022-07-28T10:23:26.141Z,1.40
2022-07-28T10:28:37.173Z,1.50
2022-07-28T10:33:44.727Z,1.50
2022-07-28T10:38:55.165Z,1.40
2022-07-28T10:44:04.558Z,1.50
2022-07-28T10:49:11.375Z,1.43
2022-07-28T10:54:29.723Z,1.30
2022-07-28T10:59:48.823Z,1.47
2022-07-28T11:04:56.615Z,1.20
2022-07-28T11:10:17.199Z,1.20
2022-07-28T11:15:32.611Z,1.50
2022-07-28T11:21:00.694Z,1.60
2022-07-28T11:26:24.624Z,1.13
2022-07-28T11:31:51.902Z,1.47
2022-07-28T11:37:15.172Z,1.57
2022-07-28T11:42:33.825Z,1.10
2022-07-28T11:47:39.574Z,1.70
2022-07-28T11:52:58.700Z,1.80
2022-07-28T11:58:05.897Z,1.80
2022-07-28T12:03:11.467Z,1.67
2022-07-28T12:08:18.164Z,1.40
2022-07-28T12:13:28.391Z,1.70
2022-07-28T12:18:33.905Z,1.60
2022-07-28T12:23:46.219Z,1.50
2022-07-28T12:28:51.287Z,1.57
2022-07-28T12:34:01.231Z,1.50
2022-07-28T12:39:12.766Z,1.87
2022-07-28T12:44:15.995Z,1.60
2022-07-28T12:49:23.276Z,1.53
2022-07-28T12:54:38.674Z,1.70
2022-07-28T12:59:44.428Z,1.50
2022-07-28T13:04:51.312Z,2.00
2022-07-28T13:25:32.315Z,1.47
2022-07-28T13:30:39.461Z,1.90
2022-07-28T13:35:45.410Z,1.90
2022-07-28T13:40:52.796Z,2.00
2022-07-28T13:46:00.107Z,2.30
2022-07-28T13:51:05.763Z,2.03
2022-07-28T13:56:13.194Z,1.83
2022-07-28T14:01:18.821Z,1.77
2022-07-28T14:06:26.151Z,1.77
2022-07-28T14:11:34.541Z,2.07
2022-07-28T14:16:40.741Z,1.57
2022-07-28T14:21:47.036Z,1.70
2022-07-28T14:26:52.608Z,1.90
2022-07-28T14:31:59.671Z,3.13
2022-07-28T14:37:08.719Z,3.57
2022-07-28T14:42:13.403Z,3.17
2022-07-28T14:47:19.978Z,2.87
2022-07-28T14:52:26.753Z,2.80
2022-07-28T14:57:51.961Z,3.27
2022-07-28T15:02:41.953Z,2.60
2022-07-28T15:07:49.565Z,2.37
2022-07-28T15:12:55.706Z,2.63
2022-07-28T15:18:02.905Z,2.07
2022-07-28T15:23:10.691Z,2.33
2022-07-28T15:28:17.607Z,2.23
2022-07-28T15:33:25.249Z,2.63
2022-07-28T15:38:31.834Z,2.67
2022-07-28T15:43:38.094Z,2.37
2022-07-28T15:48:45.955Z,2.30
2022-07-28T15:53:53.216Z,2.20
2022-07-28T15:58:59.650Z,2.10
2022-07-28T16:04:05.265Z,2.60
2022-07-28T16:09:10.940Z,2.77
2022-07-28T16:14:17.971Z,2.63
2022-07-28T16:19:47.355Z,3.63
2022-07-28T16:24:31.961Z,2.40
2022-07-28T16:29:38.006Z,2.50
2022-07-28T16:34:43.774Z,2.13
2022-07-28T16:39:49.842Z,2.33
2022-07-28T16:44:55.310Z,2.10
2022-07-28T16:50:00.779Z,2.60
2022-07-28T16:55:13.882Z,2.37
2022-07-28T17:00:15.927Z,2.30
2022-07-28T17:05:21.559Z,2.30
2022-07-28T17:10:27.821Z,2.40
2022-07-28T17:15:33.676Z,2.43
2022-07-28T17:20:41.291Z,2.40
2022-07-28T17:30:54.316Z,2.13
2022-07-28T17:36:00.460Z,2.43
2022-07-28T17:41:07.789Z,2.20
2022-07-28T17:46:13.477Z,2.50
2022-07-28T17:51:20.453Z,2.23
2022-07-28T17:56:26.115Z,2.20
2022-07-28T18:01:31.751Z,2.47
2022-07-28T18:06:40.453Z,2.50
2022-07-28T18:11:57.653Z,2.60
2022-07-28T18:16:53.312Z,2.20
2022-07-28T18:21:59.896Z,2.63
2022-07-28T18:27:06.997Z,2.10
2022-07-28T18:32:12.732Z,2.10
2022-07-28T18:37:19.037Z,2.53
2022-07-28T18:42:24.801Z,2.13
2022-07-28T18:47:30.365Z,2.50
2022-07-28T18:52:37.469Z,2.57
2022-07-28T18:57:44.055Z,2.70
2022-07-28T19:02:49.681Z,2.07
2022-07-28T19:07:55.898Z,2.30
2022-07-28T19:13:01.567Z,2.50
2022-07-28T19:18:11.181Z,2.20
2022-07-28T19:23:14.950Z,2.83
2022-07-28T19:28:20.830Z,2.57
2022-07-28T19:33:27.694Z,2.40
2022-07-28T19:38:33.186Z,2.47
2022-07-28T19:43:38.703Z,2.37
2022-07-28T19:48:44.335Z,2.63
2022-07-28T19:53:50.134Z,2.20
2022-07-28T19:58:55.762Z,1.90
2022-07-28T20:04:05.239Z,1.60
2022-07-28T20:09:09.637Z,1.90
2022-07-28T20:14:15.507Z,2.30
2022-07-28T20:19:21.479Z,1.93
2022-07-28T20:24:27.254Z,1.83
2022-07-28T20:29:32.917Z,2.00
2022-07-28T20:34:38.637Z,2.10
2022-07-28T20:39:45.564Z,2.17
2022-07-28T20:44:52.432Z,1.77
2022-07-28T20:49:58.048Z,2.03
2022-07-28T20:55:04.752Z,1.83
2022-07-28T21:00:11.158Z,2.30
2022-07-28T21:05:26.517Z,2.00
2022-07-28T21:10:24.609Z,1.77
2022-07-28T21:15:30.184Z,1.80
2022-07-28T21:20:35.948Z,2.03
2022-07-28T21:25:41.825Z,2.00
2022-07-28T21:30:49.122Z,2.30
2022-07-28T21:35:54.735Z,1.90
2022-07-28T21:41:00.264Z,1.90
2022-07-28T21:46:06.086Z,2.17
2022-07-28T21:51:18.477Z,2.00
2022-07-28T21:56:22.170Z,2.17
2022-07-28T22:01:28.444Z,2.20
2022-07-28T22:06:34.344Z,2.00
2022-07-28T22:11:39.879Z,1.87
2022-07-28T22:16:45.643Z,1.80
2022-07-28T22:21:51.222Z,2.00
2022-07-28T22:26:58.622Z,1.80
2022-07-28T22:32:04.457Z,2.30
2022-07-28T22:37:13.229Z,1.80
2022-07-28T22:42:17.269Z,2.30
2022-07-28T22:47:22.836Z,1.57
2022-07-28T22:52:31.565Z,2.00
2022-07-28T22:57:37.028Z,2.37
2022-07-28T23:02:42.597Z,2.20
2022-07-28T23:07:52.957Z,1.80
2022-07-28T23:12:58.581Z,1.73
2022-07-28T23:18:02.581Z,1.90
2022-07-28T23:23:08.949Z,1.70
2022-07-28T23:28:14.719Z,1.80
2022-07-28T23:33:55.799Z,1.87
2022-07-28T23:38:28.515Z,2.23
2022-07-28T23:43:34.007Z,2.20
2022-07-28T23:48:39.632Z,1.70
2022-07-28T23:53:45.332Z,2.03
2022-07-28T23:58:50.873Z,2.43
